Weather at Aversi

Public forecast

Using degrees Celsius for public forecast. Weather courtesy of forecast.io.

Closest aviation weather report (METAR) to Aversi

Closest report is Ringsted Airfield, 5.0 nm (9.3 km) N.

2024/05/18 22:20 (retrieved 15 minutes ago)

EKRS 182220Z AUTO 06004KT 020V110 9999 NCD 13/06 Q1013

Closest aviation forecast (TAF) to Aversi

Closest forecast is Copenhagen Kastrup Airport, 32.4 nm (60.0 km) ENE.

2024/05/18 18:31 (retrieved 4 hours ago)

TAF EKCH 181702Z 1818/1918 07010KT CAVOK PROB40 1906/1910 SCT050CB BECMG 1909/1911 19008KT TEMPO 1910/1917 SCT050CB